Terminal Aerodrome Forecast
Issued by NWS Bismarck, ND

Home | Current Version | Previous Version | Text Only | Print | Product List | Glossary On
Versions: 1 2 3 4 5 6 7 8 9 10 11 12 13 14
990
FTUS43 KBIS 210530
TAFISN
TAF
KISN 210530Z 2106/2206 28022G31KT P6SM BKN250 WS020/29045KT
     FM210800 27015G23KT P6SM SCT200 WS020/30035KT
     FM211600 27019G28KT P6SM BKN035 WS020/28030KT
     FM212000 28020G30KT P6SM SCT050 WS020/29030KT
     FM212300 28019G28KT P6SM SCT110
     FM220300 27008KT P6SM FEW250
      AMD NOT SKED=

USA.gov is the U.S. government's official web portal to all federal, state and local government web resources and services.